Station Historical Data
Daily Summary for February 23, 2017 Units:  Metric    English   Both
« Previous Day
Next Day »
Daily Weekly Monthly Yearly Custom
  High: Low: Average:
Temperature: 15.3 °C 5.8 °C 11.7 °C
Dew Point: 11.8 °C 3.3 °C 8.9 °C
Humidity: 91% 78% 83%
Wind Speed: 24.1km/h 0km/h 8.4km/h
Wind Gust: 40.2km/h - -
Wind- - SSW
Pressure: 1011.7 hPa 1004.3 hPa -
Precipitation: 0 mm    
Historical Graphs
 
 
Tabular Data for February 23, 2017
Time Temperature Dew Point Pressure Wind Wind Speed Wind Gust Humidity Rainfall Rate (Hourly)
00:04 13.8 °C 10.9 °C 1007.3 hPa South 4.8 km/h 11.3 km/h 83% 0 mm
00:09 13.8 °C 10.9 °C 1007 hPa SSW 4.8 km/h 11.3 km/h 83% 0 mm
00:14 13.9 °C 11.1 °C 1007 hPa SW 8 km/h 14.5 km/h 83% 0 mm
00:19 13.9 °C 11.1 °C 1007 hPa SW 11.3 km/h 16.1 km/h 83% 0 mm
00:24 13.9 °C 10.9 °C 1007 hPa SSW 6.4 km/h 16.1 km/h 82% 0 mm
00:29 13.9 °C 10.9 °C 1007 hPa SSW 6.4 km/h 12.9 km/h 82% 0 mm
00:34 13.7 °C 10.9 °C 1006.7 hPa SSW 6.4 km/h 11.3 km/h 83% 0 mm
00:39 13.6 °C 10.8 °C 1006.7 hPa SSW 6.4 km/h 11.3 km/h 83% 0 mm
00:44 13.6 °C 10.7 °C 1006.7 hPa SSW 11.3 km/h 16.1 km/h 83% 0 mm
00:49 13.4 °C 10.6 °C 1006.7 hPa SW 4.8 km/h 12.9 km/h 83% 0 mm
00:54 13.3 °C 10.5 °C 1006.7 hPa SSW 6.4 km/h 12.9 km/h 83% 0 mm
00:59 13.2 °C 10.6 °C 1006.7 hPa SSW 6.4 km/h 11.3 km/h 84% 0 mm
01:04 13.1 °C 10.4 °C 1006.7 hPa SW 4.8 km/h 11.3 km/h 84% 0 mm
01:09 13.2 °C 10.5 °C 1006.7 hPa SSW 6.4 km/h 11.3 km/h 84% 0 mm
01:14 13.2 °C 10.5 °C 1006.3 hPa SSW 6.4 km/h 14.5 km/h 84% 0 mm
01:19 13.2 °C 10.6 °C 1006.7 hPa South 9.7 km/h 16.1 km/h 84% 0 mm
01:24 13.3 °C 10.7 °C 1006.3 hPa South 4.8 km/h 11.3 km/h 84% 0 mm
01:29 13.3 °C 10.6 °C 1006.3 hPa SSW 6.4 km/h 11.3 km/h 84% 0 mm
01:34 13.2 °C 10.6 °C 1006.3 hPa SSW 6.4 km/h 12.9 km/h 84% 0 mm
01:39 13.2 °C 10.5 °C 1006.3 hPa SSW 6.4 km/h 12.9 km/h 84% 0 mm
01:44 13.1 °C 10.4 °C 1006.3 hPa SW 6.4 km/h 11.3 km/h 84% 0 mm
01:49 13 °C 10.3 °C 1006 hPa South 4.8 km/h 12.9 km/h 84% 0 mm
01:54 13 °C 10.3 °C 1006 hPa West 8 km/h 12.9 km/h 84% 0 mm
01:59 13 °C 10.3 °C 1006.3 hPa SSW 6.4 km/h 12.9 km/h 84% 0 mm
02:04 13 °C 10.3 °C 1006.3 hPa SSW 4.8 km/h 11.3 km/h 84% 0 mm
02:09 13.1 °C 10.4 °C 1006.3 hPa SW 6.4 km/h 16.1 km/h 84% 0 mm
02:14 13.3 °C 10.7 °C 1006 hPa SW 9.7 km/h 12.9 km/h 84% 0 mm
02:19 13.6 °C 10.7 °C 1006 hPa WSW 6.4 km/h 14.5 km/h 83% 0 mm
02:24 13.7 °C 10.7 °C 1006 hPa SW 4.8 km/h 24.1 km/h 82% 0 mm
02:29 13.8 °C 10.8 °C 1006 hPa SW 6.4 km/h 14.5 km/h 82% 0 mm
02:34 13.8 °C 10.6 °C 1006 hPa SW 9.7 km/h 19.3 km/h 81% 0 mm
02:39 13.8 °C 10.6 °C 1006 hPa SSW 8 km/h 17.7 km/h 81% 0 mm
02:44 13.8 °C 10.6 °C 1006 hPa SSW 8 km/h 17.7 km/h 81% 0 mm
02:49 13.8 °C 10.6 °C 1006 hPa SW 6.4 km/h 20.9 km/h 81% 0 mm
02:54 13.8 °C 10.6 °C 1006 hPa SW 8 km/h 17.7 km/h 81% 0 mm
02:59 13.8 °C 10.6 °C 1006 hPa South 9.7 km/h 12.9 km/h 81% 0 mm
03:04 13.8 °C 10.6 °C 1006 hPa SSW 6.4 km/h 14.5 km/h 81% 0 mm
03:09 13.8 °C 10.6 °C 1005.6 hPa SSW 6.4 km/h 14.5 km/h 81% 0 mm
03:14 13.8 °C 10.6 °C 1005.6 hPa SSW 6.4 km/h 12.9 km/h 81% 0 mm
03:19 13.8 °C 10.4 °C 1006 hPa SSW 6.4 km/h 14.5 km/h 80% 0 mm
03:24 13.8 °C 10.4 °C 1005.6 hPa SW 6.4 km/h 14.5 km/h 80% 0 mm
03:29 13.9 °C 10.5 °C 1005.6 hPa SSW 6.4 km/h 12.9 km/h 80% 0 mm
03:34 13.9 °C 10.5 °C 1005.6 hPa SW 6.4 km/h 14.5 km/h 80% 0 mm
03:39 14 °C 10.4 °C 1005.6 hPa SW 12.9 km/h 14.5 km/h 79% 0 mm
03:44 14.1 °C 10.5 °C 1005.6 hPa SW 8 km/h 17.7 km/h 79% 0 mm
03:49 14.2 °C 10.6 °C 1005.6 hPa South 6.4 km/h 16.1 km/h 79% 0 mm
03:54 14.1 °C 10.5 °C 1005.6 hPa SSW 9.7 km/h 17.7 km/h 79% 0 mm
03:59 14.1 °C 10.5 °C 1005.3 hPa South 6.4 km/h 17.7 km/h 79% 0 mm
04:04 13.9 °C 10.3 °C 1005.6 hPa SSW 3.2 km/h 14.5 km/h 79% 0 mm
04:09 13.8 °C 10.4 °C 1005.3 hPa SSW 6.4 km/h 14.5 km/h 80% 0 mm
04:14 13.8 °C 10.4 °C 1005.3 hPa SSW 6.4 km/h 14.5 km/h 80% 0 mm
04:19 13.8 °C 10.4 °C 1005.3 hPa SSW 8 km/h 14.5 km/h 80% 0 mm
04:24 13.9 °C 10.5 °C 1005.3 hPa SSW 8 km/h 14.5 km/h 80% 0 mm
04:29 13.8 °C 10.4 °C 1005.3 hPa SSW 6.4 km/h 14.5 km/h 80% 0 mm
04:34 13.7 °C 10.5 °C 1005.3 hPa SSW 6.4 km/h 14.5 km/h 81% 0 mm
04:39 13.6 °C 10.4 °C 1005.3 hPa SSW 9.7 km/h 11.3 km/h 81% 0 mm
04:44 13.6 °C 10.4 °C 1005.3 hPa SSW 6.4 km/h 12.9 km/h 81% 0 mm
04:49 13.5 °C 10.3 °C 1005.3 hPa SW 4.8 km/h 16.1 km/h 81% 0 mm
04:54 13.3 °C 10.2 °C 1005.3 hPa South 6.4 km/h 11.3 km/h 81% 0 mm
04:59 13.3 °C 10.3 °C 1005.3 hPa South 8 km/h 12.9 km/h 82% 0 mm
05:04 13.2 °C 10.2 °C 1005 hPa South 4.8 km/h 11.3 km/h 82% 0 mm
05:09 13.2 °C 10.2 °C 1005.3 hPa South 9.7 km/h 16.1 km/h 82% 0 mm
05:14 13.2 °C 10.3 °C 1005.3 hPa SSW 8 km/h 16.1 km/h 83% 0 mm
05:19 13.3 °C 10.3 °C 1005 hPa SSW 6.4 km/h 17.7 km/h 82% 0 mm
05:24 13.4 °C 10.4 °C 1005 hPa SSW 8 km/h 17.7 km/h 82% 0 mm
05:29 13.3 °C 10.3 °C 1005.3 hPa SSW 8 km/h 17.7 km/h 82% 0 mm
05:34 13.4 °C 10.4 °C 1005.3 hPa SSW 6.4 km/h 12.9 km/h 82% 0 mm
05:39 13.4 °C 10.4 °C 1005 hPa South 3.2 km/h 14.5 km/h 82% 0 mm
05:44 13.4 °C 10.4 °C 1005 hPa SSW 8 km/h 16.1 km/h 82% 0 mm
05:49 13.4 °C 10.4 °C 1005 hPa SSW 6.4 km/h 16.1 km/h 82% 0 mm
05:54 13.4 °C 10.4 °C 1004.6 hPa South 4.8 km/h 12.9 km/h 82% 0 mm
05:59 13.3 °C 10.3 °C 1004.6 hPa SSW 11.3 km/h 19.3 km/h 82% 0 mm
06:04 13.3 °C 10.3 °C 1004.6 hPa SSW 8 km/h 20.9 km/h 82% 0 mm
06:09 13.3 °C 10.3 °C 1004.6 hPa South 4.8 km/h 19.3 km/h 82% 0 mm
06:14 13.4 °C 10.4 °C 1004.6 hPa South 4.8 km/h 19.3 km/h 82% 0 mm
06:19 13.4 °C 10.4 °C 1004.6 hPa SSW 8 km/h 19.3 km/h 82% 0 mm
06:24 13.4 °C 10.4 °C 1004.6 hPa SSW 8 km/h 14.5 km/h 82% 0 mm
06:29 13.5 °C 10.5 °C 1004.6 hPa SSW 9.7 km/h 17.7 km/h 82% 0 mm
06:34 13.6 °C 10.4 °C 1004.6 hPa South 11.3 km/h 17.7 km/h 81% 0 mm
06:39 13.7 °C 10.5 °C 1004.6 hPa South 6.4 km/h 25.7 km/h 81% 0 mm
06:44 13.7 °C 10.7 °C 1004.6 hPa SSW 6.4 km/h 20.9 km/h 82% 0 mm
06:49 13.7 °C 10.7 °C 1004.6 hPa SSW 9.7 km/h 20.9 km/h 82% 0 mm
06:54 13.7 °C 10.7 °C 1004.6 hPa SSW 9.7 km/h 19.3 km/h 82% 0 mm
06:59 13.8 °C 10.8 °C 1004.6 hPa SSW 9.7 km/h 22.5 km/h 82% 0 mm
07:04 13.8 °C 10.8 °C 1004.6 hPa SSW 9.7 km/h 22.5 km/h 82% 0 mm
07:09 13.9 °C 10.9 °C 1004.6 hPa SW 6.4 km/h 24.1 km/h 82% 0 mm
07:14 13.9 °C 10.9 °C 1004.6 hPa South 9.7 km/h 20.9 km/h 82% 0 mm
07:19 13.9 °C 10.9 °C 1004.6 hPa SSW 9.7 km/h 24.1 km/h 82% 0 mm
07:24 14 °C 11 °C 1004.6 hPa SSW 9.7 km/h 24.1 km/h 82% 0 mm
07:29 14.1 °C 11.1 °C 1004.6 hPa SW 6.4 km/h 16.1 km/h 82% 0 mm
07:34 14 °C 11 °C 1004.6 hPa SSW 6.4 km/h 16.1 km/h 82% 0 mm
07:39 14.1 °C 11.1 °C 1004.6 hPa South 11.3 km/h 16.1 km/h 82% 0 mm
07:44 14.1 °C 10.9 °C 1004.6 hPa WSW 6.4 km/h 17.7 km/h 81% 0 mm
07:49 14.2 °C 11.2 °C 1004.6 hPa SSW 8 km/h 17.7 km/h 82% 0 mm
07:54 14.2 °C 11.2 °C 1004.6 hPa SSW 8 km/h 17.7 km/h 82% 0 mm
07:59 14.2 °C 11.2 °C 1005 hPa SSW 8 km/h 17.7 km/h 82% 0 mm
08:04 14.3 °C 11.1 °C 1005 hPa SSW 8 km/h 17.7 km/h 81% 0 mm
08:09 14.3 °C 11.1 °C 1004.6 hPa SSW 8 km/h 19.3 km/h 81% 0 mm
08:14 14.4 °C 11.2 °C 1004.6 hPa SSW 8 km/h 22.5 km/h 81% 0 mm
08:19 14.5 °C 11.3 °C 1004.6 hPa SSW 12.9 km/h 19.3 km/h 81% 0 mm
08:24 14.5 °C 11.3 °C 1004.6 hPa SSW 9.7 km/h 22.5 km/h 81% 0 mm
08:29 14.6 °C 11.4 °C 1004.6 hPa SSW 9.7 km/h 22.5 km/h 81% 0 mm
08:34 14.7 °C 11.4 °C 1004.6 hPa SSW 9.7 km/h 22.5 km/h 81% 0 mm
08:39 14.8 °C 11.6 °C 1004.6 hPa South 11.3 km/h 17.7 km/h 81% 0 mm
08:44 14.8 °C 11.6 °C 1004.6 hPa SSW 4.8 km/h 22.5 km/h 81% 0 mm
08:49 14.8 °C 11.6 °C 1004.6 hPa SW 17.7 km/h 19.3 km/h 81% 0 mm
08:54 14.9 °C 11.7 °C 1004.6 hPa SSW 11.3 km/h 20.9 km/h 81% 0 mm
08:59 14.9 °C 11.5 °C 1004.6 hPa SW 11.3 km/h 22.5 km/h 80% 0 mm
09:04 15.1 °C 11.6 °C 1004.6 hPa SW 11.3 km/h 22.5 km/h 80% 0 mm
09:09 15.2 °C 11.7 °C 1004.6 hPa SSW 16.1 km/h 30.6 km/h 80% 0 mm
09:14 15.2 °C 11.8 °C 1004.6 hPa SW 16.1 km/h 25.7 km/h 80% 0 mm
09:19 15.3 °C 11.8 °C 1004.6 hPa SW 24.1 km/h 30.6 km/h 80% 0 mm
09:24 15.3 °C 11.7 °C 1004.6 hPa SW 19.3 km/h 27.4 km/h 79% 0 mm
09:29 15.3 °C 11.8 °C 1004.6 hPa SW 16.1 km/h 33.8 km/h 80% 0 mm
09:34 15.3 °C 11.8 °C 1004.6 hPa SW 17.7 km/h 33.8 km/h 80% 0 mm
09:39 15.3 °C 11.8 °C 1004.6 hPa SE 17.7 km/h 30.6 km/h 80% 0 mm
09:44 15.3 °C 11.7 °C 1004.6 hPa SW 16.1 km/h 33.8 km/h 79% 0 mm
09:49 15.3 °C 11.7 °C 1004.6 hPa WSW 8 km/h 29 km/h 79% 0 mm
09:54 15.3 °C 11.8 °C 1004.6 hPa ESE 8 km/h 30.6 km/h 80% 0 mm
09:59 15.3 °C 11.8 °C 1004.3 hPa SW 11.3 km/h 30.6 km/h 80% 0 mm
10:04 15.3 °C 11.8 °C 1004.3 hPa SW 16.1 km/h 30.6 km/h 80% 0 mm
10:09 15.3 °C 11.8 °C 1004.3 hPa SW 16.1 km/h 29 km/h 80% 0 mm
10:14 15.3 °C 11.8 °C 1004.6 hPa SW 16.1 km/h 29 km/h 80% 0 mm
10:19 15.3 °C 11.8 °C 1004.6 hPa SW 14.5 km/h 27.4 km/h 80% 0 mm
10:24 15.3 °C 11.8 °C 1004.6 hPa WSW 12.9 km/h 29 km/h 80% 0 mm
10:29 15.2 °C 11.8 °C 1004.6 hPa SW 19.3 km/h 30.6 km/h 80% 0 mm
10:34 15.2 °C 11.7 °C 1004.6 hPa SW 16.1 km/h 32.2 km/h 80% 0 mm
10:39 15.1 °C 11.7 °C 1004.6 hPa WSW 16.1 km/h 27.4 km/h 80% 0 mm
10:44 15.1 °C 11.7 °C 1004.6 hPa SW 14.5 km/h 27.4 km/h 80% 0 mm
10:49 15.1 °C 11.7 °C 1004.6 hPa SW 14.5 km/h 25.7 km/h 80% 0 mm
10:54 15.1 °C 11.6 °C 1004.3 hPa SW 14.5 km/h 27.4 km/h 80% 0 mm
10:59 15.1 °C 11.6 °C 1004.6 hPa SW 16.1 km/h 30.6 km/h 80% 0 mm
11:04 15.1 °C 11.6 °C 1004.6 hPa WSW 6.4 km/h 30.6 km/h 80% 0 mm
11:09 15 °C 11.6 °C 1004.6 hPa SW 14.5 km/h 32.2 km/h 80% 0 mm
11:14 15 °C 11.6 °C 1004.6 hPa SW 14.5 km/h 32.2 km/h 80% 0 mm
11:19 15.1 °C 11.8 °C 1004.6 hPa SW 14.5 km/h 25.7 km/h 81% 0 mm
11:24 15.1 °C 11.6 °C 1004.6 hPa WSW 14.5 km/h 32.2 km/h 80% 0 mm
11:29 15 °C 11.6 °C 1004.6 hPa WSW 16.1 km/h 25.7 km/h 80% 0 mm
11:34 15.1 °C 11.6 °C 1004.6 hPa WSW 11.3 km/h 29 km/h 80% 0 mm
11:39 14.8 °C 11.2 °C 1005 hPa WSW 14.5 km/h 29 km/h 79% 0 mm
11:44 13.6 °C 10.2 °C 1005 hPa WSW 20.9 km/h 29 km/h 80% 0 mm
11:49 12.8 °C 10 °C 1005 hPa WSW 14.5 km/h 24.1 km/h 83% 0 mm
11:54 12.7 °C 10.1 °C 1005 hPa SW 22.5 km/h 30.6 km/h 84% 0 mm
11:59 12.7 °C 10.2 °C 1005 hPa WNW 12.9 km/h 29 km/h 85% 0 mm
12:04 12.7 °C 10.3 °C 1005 hPa SW 14.5 km/h 32.2 km/h 85% 0 mm
12:09 12.7 °C 10.2 °C 1005 hPa WSW 16.1 km/h 32.2 km/h 85% 0 mm
12:14 12.7 °C 10.3 °C 1005.3 hPa WSW 16.1 km/h 32.2 km/h 85% 0 mm
12:19 12.8 °C 10.3 °C 1005.3 hPa WSW 17.7 km/h 32.2 km/h 85% 0 mm
12:24 12.9 °C 10.4 °C 1005 hPa WSW 17.7 km/h 32.2 km/h 85% 0 mm
12:29 13.1 °C 10.6 °C 1005 hPa WSW 20.9 km/h 35.4 km/h 85% 0 mm
12:34 13.1 °C 10.3 °C 1005 hPa West 16.1 km/h 24.1 km/h 83% 0 mm
12:39 13 °C 10 °C 1005 hPa WSW 16.1 km/h 29 km/h 82% 0 mm
12:44 13.2 °C 10.3 °C 1005.3 hPa WSW 16.1 km/h 29 km/h 83% 0 mm
12:49 13.5 °C 10.5 °C 1005.3 hPa WSW 12.9 km/h 25.7 km/h 82% 0 mm
12:54 13.8 °C 10.6 °C 1005.3 hPa WSW 19.3 km/h 27.4 km/h 81% 0 mm
12:59 13.8 °C 10.6 °C 1005.3 hPa West 11.3 km/h 24.1 km/h 81% 0 mm
13:04 14.1 °C 10.7 °C 1005.3 hPa West 6.4 km/h 27.4 km/h 80% 0 mm
13:09 14.3 °C 10.9 °C 1005.3 hPa West 11.3 km/h 27.4 km/h 80% 0 mm
13:14 14.2 °C 10.6 °C 1005.3 hPa West 12.9 km/h 27.4 km/h 79% 0 mm
13:19 13.7 °C 10.4 °C 1005.3 hPa West 16.1 km/h 35.4 km/h 81% 0 mm
13:24 13.6 °C 10.3 °C 1005.3 hPa West 17.7 km/h 40.2 km/h 81% 0 mm
13:29 13.8 °C 10.6 °C 1005.3 hPa West 16.1 km/h 40.2 km/h 81% 0 mm
13:34 14.2 °C 10.8 °C 1005.3 hPa West 12.9 km/h 29 km/h 80% 0 mm
13:39 14.3 °C 10.7 °C 1005.3 hPa West 12.9 km/h 30.6 km/h 79% 0 mm
13:44 14.7 °C 10.9 °C 1005.3 hPa WSW 9.7 km/h 25.7 km/h 78% 0 mm
13:49 14.4 °C 10.7 °C 1005.3 hPa South 20.9 km/h 29 km/h 78% 0 mm
13:54 14.3 °C 10.5 °C 1005.3 hPa SW 20.9 km/h 30.6 km/h 78% 0 mm
13:59 14.3 °C 10.7 °C 1005.3 hPa West 24.1 km/h 24.1 km/h 79% 0 mm
14:04 13.7 °C 10.1 °C 1005.6 hPa SW 17.7 km/h 35.4 km/h 79% 0 mm
14:09 13.4 °C 10 °C 1005.6 hPa WSW 16.1 km/h 27.4 km/h 80% 0 mm
14:14 13 °C 9.6 °C 1006 hPa SSE 6.4 km/h 27.4 km/h 80% 0 mm
14:19 12.6 °C 9.2 °C 1006 hPa WSW 12.9 km/h 27.4 km/h 80% 0 mm
14:24 12 °C 9 °C 1006 hPa SW 14.5 km/h 25.7 km/h 82% 0 mm
14:29 11.2 °C 8.3 °C 1006.3 hPa WSW 12.9 km/h 25.7 km/h 82% 0 mm
14:34 10.8 °C 8.1 °C 1006.3 hPa SW 12.9 km/h 25.7 km/h 83% 0 mm
14:39 10.6 °C 7.8 °C 1006.3 hPa SW 11.3 km/h 24.1 km/h 83% 0 mm
14:44 10.6 °C 7.8 °C 1006.3 hPa SW 12.9 km/h 22.5 km/h 83% 0 mm
14:49 10.3 °C 7.7 °C 1006.7 hPa WSW 9.7 km/h 22.5 km/h 84% 0 mm
14:54 9.9 °C 7.5 °C 1006.7 hPa SW 6.4 km/h 20.9 km/h 85% 0 mm
14:59 9.8 °C 7.3 °C 1006.7 hPa SW 11.3 km/h 22.5 km/h 84% 0 mm
15:04 9.9 °C 7.3 °C 1007 hPa SSW 9.7 km/h 29 km/h 84% 0 mm
15:09 9.9 °C 7.6 °C 1007 hPa SW 9.7 km/h 19.3 km/h 85% 0 mm
15:14 9.7 °C 7.3 °C 1007 hPa SW 11.3 km/h 25.7 km/h 85% 0 mm
15:19 9.8 °C 7.4 °C 1007 hPa SW 8 km/h 22.5 km/h 85% 0 mm
15:24 10.1 °C 7.5 °C 1007 hPa WSW 11.3 km/h 22.5 km/h 84% 0 mm
15:29 10.2 °C 7.8 °C 1007 hPa WSW 11.3 km/h 20.9 km/h 85% 0 mm
15:34 10.1 °C 7.5 °C 1007 hPa WSW 11.3 km/h 24.1 km/h 84% 0 mm
15:39 10.2 °C 7.6 °C 1007 hPa SW 12.9 km/h 27.4 km/h 84% 0 mm
15:44 10.1 °C 7.6 °C 1007.3 hPa SW 12.9 km/h 27.4 km/h 84% 0 mm
15:49 9.9 °C 7.6 °C 1007.3 hPa SW 12.9 km/h 24.1 km/h 85% 0 mm
15:54 10 °C 7.4 °C 1007.3 hPa SW 11.3 km/h 24.1 km/h 84% 0 mm
15:59 10 °C 7.4 °C 1007.3 hPa SW 9.7 km/h 24.1 km/h 84% 0 mm
16:04 9.9 °C 7.5 °C 1007.3 hPa SW 14.5 km/h 19.3 km/h 85% 0 mm
16:09 9.9 °C 7.5 °C 1007.3 hPa SW 12.9 km/h 17.7 km/h 85% 0 mm
16:14 9.9 °C 7.6 °C 1007.3 hPa WSW 9.7 km/h 24.1 km/h 85% 0 mm
16:19 9.9 °C 7.6 °C 1007.3 hPa West 6.4 km/h 20.9 km/h 85% 0 mm
16:24 9.9 °C 7.6 °C 1007.7 hPa SW 12.9 km/h 20.9 km/h 85% 0 mm
16:29 9.8 °C 7.4 °C 1007.7 hPa SW 9.7 km/h 22.5 km/h 85% 0 mm
16:34 9.8 °C 7.4 °C 1007.7 hPa SW 9.7 km/h 22.5 km/h 85% 0 mm
16:39 9.7 °C 7.4 °C 1007.7 hPa SW 9.7 km/h 22.5 km/h 86% 0 mm
16:44 9.7 °C 7.4 °C 1007.7 hPa SW 11.3 km/h 22.5 km/h 86% 0 mm
16:49 9.6 °C 7.6 °C 1008 hPa SW 9.7 km/h 22.5 km/h 87% 0 mm
16:54 9.6 °C 7.5 °C 1008 hPa WSW 19.3 km/h 19.3 km/h 87% 0 mm
16:59 9.7 °C 7.6 °C 1008 hPa WSW 11.3 km/h 19.3 km/h 87% 0 mm
17:04 9.7 °C 7.7 °C 1008 hPa SW 19.3 km/h 19.3 km/h 87% 0 mm
17:09 9.8 °C 7.7 °C 1008 hPa WSW 12.9 km/h 24.1 km/h 87% 0 mm
17:14 9.7 °C 7.7 °C 1008 hPa SW 12.9 km/h 24.1 km/h 87% 0 mm
17:19 9.7 °C 7.6 °C 1008.4 hPa SW 12.9 km/h 22.5 km/h 87% 0 mm
17:24 9.6 °C 7.6 °C 1008.4 hPa WSW 9.7 km/h 22.5 km/h 87% 0 mm
17:29 9.6 °C 7.5 °C 1008.4 hPa SW 4.8 km/h 19.3 km/h 87% 0 mm
17:34 9.4 °C 7.4 °C 1008.7 hPa West 3.2 km/h 9.7 km/h 87% 0 mm
17:39 9.3 °C 7.4 °C 1009 hPa South 8 km/h 14.5 km/h 88% 0 mm
17:44 9.2 °C 7.3 °C 1009 hPa WSW 8 km/h 14.5 km/h 88% 0 mm
17:49 9 °C 7.1 °C 1009 hPa WSW 8 km/h 14.5 km/h 88% 0 mm
17:54 8.8 °C 6.9 °C 1009.4 hPa West 1.6 km/h 12.9 km/h 88% 0 mm
17:59 8.8 °C 7.1 °C 1009.4 hPa SW 8 km/h 9.7 km/h 89% 0 mm
18:04 8.7 °C 7 °C 1009.7 hPa SW 1.6 km/h 9.7 km/h 89% 0 mm
18:09 8.5 °C 6.8 °C 1009.7 hPa SW 4.8 km/h 14.5 km/h 89% 0 mm
18:14 8.6 °C 6.8 °C 1009.7 hPa WSW 4.8 km/h 14.5 km/h 89% 0 mm
18:19 8.6 °C 6.8 °C 1010 hPa WSW 4.8 km/h 8 km/h 89% 0 mm
18:24 8.6 °C 6.8 °C 1010 hPa WSW 4.8 km/h 9.7 km/h 89% 0 mm
18:29 8.6 °C 6.8 °C 1010 hPa SW 6.4 km/h 8 km/h 89% 0 mm
18:34 8.5 °C 6.8 °C 1010.4 hPa SW 4.8 km/h 9.7 km/h 89% 0 mm
18:39 8.4 °C 6.7 °C 1010 hPa WSW 4.8 km/h 6.4 km/h 89% 0 mm
18:49 8.2 °C 6.5 °C 1010.4 hPa SW 1.6 km/h 6.4 km/h 89% 0 mm
18:54 8.2 °C 6.7 °C 1010.7 hPa SSW 1.6 km/h 6.4 km/h 90% 0 mm
18:59 8.2 °C 6.6 °C 1010.7 hPa SW 1.6 km/h 6.4 km/h 90% 0 mm
19:04 8.1 °C 6.6 °C 1010.7 hPa Calm   4.8 km/h 90% 0 mm
19:09 8.2 °C 6.6 °C 1010.7 hPa SW 1.6 km/h 3.2 km/h 90% 0 mm
19:14 8.1 °C 6.5 °C 1010.7 hPa SW 1.6 km/h 3.2 km/h 90% 0 mm
19:19 8.1 °C 6.5 °C 1010.7 hPa Calm     90% 0 mm
19:24 7.9 °C 6.4 °C 1010.7 hPa Calm   1.6 km/h 90% 0 mm
19:29 7.9 °C 6.3 °C 1010.7 hPa Calm   3.2 km/h 90% 0 mm
19:34 7.8 °C 6.3 °C 1010.7 hPa Calm   1.6 km/h 90% 0 mm
19:39 7.7 °C 6.1 °C 1010.7 hPa Calm     90% 0 mm
19:44 7.5 °C 5.9 °C 1010.7 hPa Calm     90% 0 mm
19:49 7.4 °C 5.8 °C 1010.7 hPa Calm     90% 0 mm
19:54 7.3 °C 5.8 °C 1010.4 hPa Calm     90% 0 mm
19:59 7.4 °C 6 °C 1010.7 hPa Calm     91% 0 mm
20:04 7.3 °C 5.8 °C 1010.4 hPa Calm     90% 0 mm
20:09 7.2 °C 5.7 °C 1010.7 hPa Calm     90% 0 mm
20:14 7.2 °C 5.8 °C 1011.1 hPa Calm     91% 0 mm
20:19 7.2 °C 5.8 °C 1011.1 hPa Calm     91% 0 mm
20:24 7.3 °C 5.8 °C 1010.7 hPa Calm     90% 0 mm
20:29 7.3 °C 5.7 °C 1011.1 hPa Calm     90% 0 mm
20:34 7.1 °C 5.5 °C 1011.1 hPa SW 1.6 km/h 1.6 km/h 90% 0 mm
20:39 6.9 °C 5.4 °C 1011.1 hPa Calm   1.6 km/h 90% 0 mm
20:44 6.9 °C 5.4 °C 1011.4 hPa Calm     90% 0 mm
20:49 6.8 °C 5.3 °C 1011.4 hPa Calm     90% 0 mm
20:54 6.8 °C 5.1 °C 1011.1 hPa Calm     89% 0 mm
20:59 6.7 °C 5.1 °C 1011.1 hPa Calm     89% 0 mm
21:04 6.9 °C 5.2 °C 1011.1 hPa Calm     89% 0 mm
21:09 7.2 °C 5.3 °C 1011.4 hPa Calm     88% 0 mm
21:14 7.2 °C 5.2 °C 1011.4 hPa Calm     87% 0 mm
21:19 7.1 °C 5.1 °C 1011.4 hPa Calm     87% 0 mm
21:24 7 °C 5 °C 1011.4 hPa Calm     87% 0 mm
21:29 7.1 °C 5.1 °C 1011.4 hPa Calm     87% 0 mm
21:34 7.4 °C 5.4 °C 1011.7 hPa Calm     87% 0 mm
21:39 7.5 °C 5.3 °C 1011.7 hPa Calm     86% 0 mm
21:44 7.5 °C 5.2 °C 1011.7 hPa Calm     85% 0 mm
21:49 7.7 °C 5.3 °C 1011.7 hPa Calm   3.2 km/h 85% 0 mm
21:54 7.8 °C 5.1 °C 1011.4 hPa Calm   3.2 km/h 83% 0 mm
21:59 7.9 °C 5.2 °C 1011.4 hPa NNW 1.6 km/h 3.2 km/h 83% 0 mm
22:04 8.2 °C 5.1 °C 1011.4 hPa NNW 1.6 km/h 3.2 km/h 81% 0 mm
22:09 8.1 °C 5.2 °C 1011.4 hPa North 1.6 km/h 4.8 km/h 82% 0 mm
22:14 8.2 °C 5.1 °C 1011.1 hPa NNE 3.2 km/h 4.8 km/h 81% 0 mm
22:19 8.1 °C 5 °C 1011.4 hPa NE 3.2 km/h 8 km/h 81% 0 mm
22:24 8 °C 4.9 °C 1011.4 hPa NE 1.6 km/h 4.8 km/h 81% 0 mm
22:29 7.9 °C 4.8 °C 1011.1 hPa NE 4.8 km/h 11.3 km/h 81% 0 mm
22:34 7.8 °C 4.8 °C 1011.1 hPa NE 11.3 km/h 11.3 km/h 81% 0 mm
22:39 7.7 °C 4.6 °C 1011.1 hPa NE 3.2 km/h 11.3 km/h 81% 0 mm
22:44 7.6 °C 4.5 °C 1011.1 hPa ENE 6.4 km/h 9.7 km/h 81% 0 mm
22:49 7.4 °C 4.4 °C 1011.1 hPa NE 4.8 km/h 9.7 km/h 81% 0 mm
22:54 7.2 °C 4.2 °C 1011.1 hPa NE 4.8 km/h 8 km/h 81% 0 mm
22:59 7.1 °C 4.2 °C 1010.7 hPa NE 3.2 km/h 8 km/h 82% 0 mm
23:04 6.9 °C 4.1 °C 1011.1 hPa NE 3.2 km/h 8 km/h 82% 0 mm
23:09 6.8 °C 3.9 °C 1010.7 hPa NE 3.2 km/h 6.4 km/h 82% 0 mm
23:14 6.6 °C 3.8 °C 1010.7 hPa NE 3.2 km/h 4.8 km/h 82% 0 mm
23:19 6.4 °C 3.8 °C 1010.7 hPa NE 4.8 km/h 6.4 km/h 83% 0 mm
23:24 6.4 °C 3.8 °C 1010.7 hPa NE 3.2 km/h 6.4 km/h 83% 0 mm
23:29 6.4 °C 3.7 °C 1010.7 hPa NE 3.2 km/h 6.4 km/h 83% 0 mm
23:34 6.3 °C 3.6 °C 1010.7 hPa NE 3.2 km/h 6.4 km/h 83% 0 mm
23:39 6.2 °C 3.6 °C 1010.7 hPa NE 8 km/h 8 km/h 83% 0 mm
23:44 6.2 °C 3.5 °C 1011.1 hPa NE 3.2 km/h 8 km/h 83% 0 mm
23:49 5.9 °C 3.4 °C 1011.1 hPa NE 4.8 km/h 4.8 km/h 84% 0 mm
23:54 5.8 °C 3.3 °C 1010.7 hPa NE 3.2 km/h 6.4 km/h 84% 0 mm
23:59 5.8 °C 3.3 °C 1010.7 hPa NE 3.2 km/h 6.4 km/h 84% 0 mm
Buffalo, New York, USA
Compliments of Weather Underground - 2.5 mb